Terminal Aerodrome Forecast
Issued by NWS Milwaukee/Sullivan, WI

Home | Current Version | Previous Version | Text Only | Print | Product List | Glossary On
Versions: 1 2 3 4 5 6 7 8 9 10 11 12 13 14 15 16 17 18 19 20 21 22 23 24 25
000
FTUS43 KMKX 221451 AAB
TAFMSN
TAF AMD
KMSN 221451Z 2215/2312 07013G28KT P6SM VCSH BKN006 OVC070
      TEMPO 2215/2216 3SM -RA
     FM221800 07014KT 1SM -SHRA BR OVC005
     FM222200 05008KT 3SM -SHRA BR BKN020
     FM230300 02008KT 1SM -RASN BR OVC003
     FM230500 36009KT 1SM -SN BR OVC003
     FM230800 36012G23KT 3SM -SN BR OVC003
     FM231100 35013G25KT P6SM -SHSN OVC010=

USA.gov is the U.S. government's official web portal to all federal, state and local government web resources and services.